createdAt,value
2023-07-19T00:01:46.312Z,65.38
2023-07-19T00:04:14.707Z,65.29
2023-07-19T00:06:43.100Z,65.38
2023-07-19T00:09:11.400Z,65.89
2023-07-19T00:11:39.676Z,66.24
2023-07-19T00:14:08.627Z,65.60
2023-07-19T00:16:36.927Z,65.38
2023-07-19T00:19:18.706Z,65.60
2023-07-19T00:21:49.759Z,65.77
2023-07-19T00:24:18.324Z,66.58
2023-07-19T00:26:46.775Z,66.86
2023-07-19T00:29:15.115Z,66.27
2023-07-19T00:31:44.003Z,66.07
2023-07-19T00:34:12.249Z,66.33
2023-07-19T00:36:40.645Z,66.54
2023-07-19T00:39:08.896Z,66.54
2023-07-19T00:41:37.310Z,66.84
2023-07-19T00:44:06.022Z,67.10
2023-07-19T00:46:35.989Z,67.31
2023-07-19T00:49:04.605Z,66.94
2023-07-19T00:51:33.117Z,67.10
2023-07-19T00:54:02.016Z,66.96
2023-07-19T00:56:31.314Z,66.82
2023-07-19T00:59:01.064Z,66.57
2023-07-19T01:01:29.408Z,66.35
2023-07-19T01:03:57.804Z,66.56
2023-07-19T01:06:26.290Z,66.99
2023-07-19T01:08:54.628Z,67.14
2023-07-19T01:11:23.109Z,67.21
2023-07-19T01:13:56.343Z,67.15
2023-07-19T01:16:24.742Z,67.28
2023-07-19T01:18:53.087Z,67.39
2023-07-19T01:21:24.638Z,67.52
2023-07-19T01:23:54.911Z,67.43
2023-07-19T01:26:23.236Z,67.60
2023-07-19T01:28:51.522Z,67.55
2023-07-19T01:31:20.109Z,67.46
2023-07-19T01:33:48.641Z,67.40
2023-07-19T01:36:16.955Z,67.37
2023-07-19T01:38:45.262Z,67.46
2023-07-19T01:41:13.560Z,67.35
2023-07-19T01:43:41.931Z,67.46
2023-07-19T01:46:10.548Z,67.62
2023-07-19T01:48:39.312Z,67.83
2023-07-19T01:51:07.780Z,67.92
2023-07-19T01:53:36.380Z,67.86
2023-07-19T01:56:04.933Z,68.09
2023-07-19T01:58:33.182Z,68.30
2023-07-19T02:01:01.893Z,68.37
2023-07-19T02:03:30.294Z,68.22
2023-07-19T02:06:02.220Z,67.97
2023-07-19T02:08:30.563Z,68.01
2023-07-19T02:10:58.808Z,68.04
2023-07-19T02:13:27.145Z,68.21
2023-07-19T02:15:55.449Z,68.27
2023-07-19T02:18:23.858Z,68.31
2023-07-19T02:20:55.354Z,68.24
2023-07-19T02:23:24.806Z,68.39
2023-07-19T02:25:53.153Z,68.57
2023-07-19T02:28:21.405Z,68.51
2023-07-19T02:30:49.969Z,68.56
2023-07-19T02:33:18.601Z,68.60
2023-07-19T02:35:56.325Z,68.57
2023-07-19T02:38:27.198Z,68.72
2023-07-19T02:41:02.529Z,68.67
2023-07-19T02:43:31.492Z,68.48
2023-07-19T02:45:59.750Z,68.56
2023-07-19T02:48:28.025Z,68.57
2023-07-19T02:50:58.744Z,68.58
2023-07-19T02:53:27.137Z,68.56
2023-07-19T02:55:55.427Z,68.35
2023-07-19T02:58:24.492Z,68.70
2023-07-19T03:00:54.780Z,68.48
2023-07-19T03:03:23.320Z,68.46
2023-07-19T03:05:51.800Z,68.42
2023-07-19T03:08:20.130Z,68.53
2023-07-19T03:10:53.959Z,68.61
2023-07-19T03:13:22.301Z,68.59
2023-07-19T03:15:50.692Z,68.66
2023-07-19T03:18:19.080Z,68.63
2023-07-19T03:20:47.346Z,68.62
2023-07-19T03:23:15.666Z,68.62
2023-07-19T03:25:43.921Z,68.67
2023-07-19T03:28:12.172Z,68.69
2023-07-19T03:30:40.521Z,68.81
2023-07-19T03:33:08.929Z,68.97
2023-07-19T03:35:37.159Z,68.82
2023-07-19T03:38:05.423Z,68.82
2023-07-19T03:40:33.713Z,68.75
2023-07-19T03:43:02.039Z,68.79
2023-07-19T03:45:30.223Z,69.09
2023-07-19T03:47:58.598Z,69.21
2023-07-19T03:50:27.782Z,69.17
2023-07-19T03:52:56.019Z,69.09
2023-07-19T03:55:24.462Z,69.16
2023-07-19T03:57:52.841Z,68.98
2023-07-19T04:00:21.393Z,69.06
2023-07-19T04:02:49.957Z,69.07
2023-07-19T04:05:18.665Z,69.11
2023-07-19T04:07:47.064Z,69.08
2023-07-19T04:10:15.463Z,69.19
2023-07-19T04:12:43.766Z,69.27
2023-07-19T04:15:12.100Z,69.30
2023-07-19T04:17:40.429Z,69.32
2023-07-19T04:20:09.942Z,69.42
2023-07-19T04:22:38.255Z,69.38
2023-07-19T04:25:07.642Z,69.20
2023-07-19T04:27:35.868Z,69.36
2023-07-19T04:30:05.229Z,69.36
2023-07-19T04:32:33.688Z,69.33
2023-07-19T04:35:02.219Z,69.38
2023-07-19T04:37:30.483Z,69.43
2023-07-19T04:39:59.149Z,69.42
2023-07-19T04:42:28.407Z,69.44
2023-07-19T04:44:56.655Z,69.54
2023-07-19T04:47:24.936Z,69.38
2023-07-19T04:49:53.278Z,69.38
2023-07-19T04:52:21.593Z,69.50
2023-07-19T04:54:50.190Z,69.43
2023-07-19T04:57:18.523Z,69.40
2023-07-19T04:59:46.759Z,69.37
2023-07-19T05:02:15.039Z,69.42
2023-07-19T05:04:43.926Z,69.49
2023-07-19T05:07:12.217Z,69.42
2023-07-19T05:09:40.490Z,69.39
2023-07-19T05:12:10.111Z,69.28
2023-07-19T05:14:38.427Z,69.26
2023-07-19T05:17:07.078Z,69.21
2023-07-19T05:19:35.427Z,69.28
2023-07-19T05:22:03.712Z,69.30
2023-07-19T05:24:32.267Z,69.34
2023-07-19T05:27:01.472Z,69.25
2023-07-19T05:29:30.054Z,69.23
2023-07-19T05:31:58.571Z,69.15
2023-07-19T05:34:26.973Z,69.26
2023-07-19T05:36:55.275Z,69.36
2023-07-19T05:39:23.962Z,69.24
2023-07-19T05:41:52.195Z,69.25
2023-07-19T05:44:20.420Z,69.15
2023-07-19T05:46:48.821Z,69.08
2023-07-19T05:49:17.357Z,69.08
2023-07-19T05:51:46.245Z,69.11
2023-07-19T05:54:15.484Z,69.28
2023-07-19T05:56:43.835Z,69.38
2023-07-19T05:59:12.556Z,69.31
2023-07-19T06:01:40.868Z,69.31
2023-07-19T06:04:10.808Z,69.17
2023-07-19T06:06:39.106Z,69.10
2023-07-19T06:09:07.392Z,68.95
2023-07-19T06:11:36.848Z,68.94
2023-07-19T06:14:05.305Z,68.87
2023-07-19T06:16:33.677Z,68.81
2023-07-19T06:19:02.067Z,68.74
2023-07-19T06:21:32.830Z,68.71
2023-07-19T06:24:02.709Z,68.66
2023-07-19T06:26:31.259Z,68.56
2023-07-19T06:28:59.549Z,68.52
2023-07-19T06:31:27.827Z,68.34
2023-07-19T06:33:56.919Z,68.34
2023-07-19T06:36:25.524Z,68.19
2023-07-19T06:38:54.011Z,68.15
2023-07-19T06:41:22.672Z,68.06
2023-07-19T06:43:51.326Z,68.00
2023-07-19T06:46:19.684Z,67.94
2023-07-19T06:48:48.281Z,67.85
2023-07-19T06:51:16.562Z,67.70
2023-07-19T06:53:45.310Z,67.65
2023-07-19T06:56:13.709Z,67.57
2023-07-19T06:58:42.020Z,67.48
2023-07-19T07:01:10.383Z,67.49
2023-07-19T07:03:38.717Z,67.43
2023-07-19T07:06:07.208Z,67.32
2023-07-19T07:08:36.052Z,67.36
2023-07-19T07:11:05.638Z,67.33
2023-07-19T07:13:33.914Z,67.28
2023-07-19T07:16:02.829Z,67.31
2023-07-19T07:18:31.150Z,67.45
2023-07-19T07:20:59.368Z,67.37
2023-07-19T07:23:27.789Z,67.33
2023-07-19T07:25:56.444Z,67.29
2023-07-19T07:28:24.793Z,67.32
2023-07-19T07:30:53.090Z,67.24
2023-07-19T07:33:21.491Z,67.19
2023-07-19T07:35:49.668Z,67.14
2023-07-19T07:38:17.918Z,66.91
2023-07-19T07:40:46.253Z,66.76
2023-07-19T07:43:14.451Z,66.87
2023-07-19T07:45:43.006Z,66.77
2023-07-19T07:48:11.878Z,66.78
2023-07-19T07:50:40.216Z,66.75
2023-07-19T07:53:13.077Z,66.73
2023-07-19T07:55:43.728Z,66.83
2023-07-19T07:58:12.552Z,66.85
2023-07-19T08:00:42.577Z,66.91
2023-07-19T08:03:11.661Z,66.92
2023-07-19T08:05:40.184Z,66.96
2023-07-19T08:08:09.146Z,66.83
2023-07-19T08:10:42.120Z,66.87
2023-07-19T08:13:11.638Z,66.74
2023-07-19T08:15:40.057Z,66.75
2023-07-19T08:18:08.459Z,66.63
2023-07-19T08:20:36.847Z,66.74
2023-07-19T08:23:05.158Z,66.77
2023-07-19T08:25:35.854Z,66.77
2023-07-19T08:28:04.531Z,66.57
2023-07-19T08:30:34.057Z,66.74
2023-07-19T08:33:08.882Z,66.73
2023-07-19T08:35:37.406Z,66.86
2023-07-19T08:38:05.839Z,66.93
2023-07-19T08:40:42.801Z,66.99
2023-07-19T08:43:14.185Z,67.01
2023-07-19T08:45:46.253Z,66.90
2023-07-19T08:48:33.338Z,66.88
2023-07-19T08:51:29.080Z,66.69
2023-07-19T08:59:53.221Z,66.08
2023-07-19T09:02:29.290Z,65.95
2023-07-19T09:05:11.708Z,65.69
2023-07-19T09:10:53.418Z,66.17
2023-07-19T09:16:42.369Z,66.03
2023-07-19T09:19:14.062Z,66.00
2023-07-19T09:21:45.532Z,66.14
2023-07-19T09:24:16.662Z,65.62
2023-07-19T09:27:01.883Z,65.72
2023-07-19T09:30:02.373Z,65.42
2023-07-19T09:32:42.919Z,65.17
2023-07-19T09:35:18.308Z,65.32
2023-07-19T09:37:48.433Z,65.33
2023-07-19T09:40:16.933Z,65.55
2023-07-19T09:42:46.071Z,65.12
2023-07-19T09:45:15.475Z,64.91
2023-07-19T09:47:45.513Z,64.74
2023-07-19T09:50:14.181Z,63.99
2023-07-19T09:52:59.866Z,64.16
2023-07-19T09:55:29.886Z,64.44
2023-07-19T09:57:58.500Z,64.46
2023-07-19T10:00:27.368Z,64.51
2023-07-19T10:02:56.084Z,64.57
2023-07-19T10:05:31.259Z,64.70
2023-07-19T10:08:05.361Z,64.87
2023-07-19T10:10:41.516Z,65.00
2023-07-19T10:13:11.829Z,64.99
2023-07-19T10:15:41.510Z,65.04
2023-07-19T10:18:13.860Z,64.85
2023-07-19T10:20:44.317Z,64.67
2023-07-19T10:23:16.220Z,64.53
2023-07-19T10:25:50.361Z,64.73
2023-07-19T10:28:31.948Z,64.69
2023-07-19T10:31:28.180Z,64.44
2023-07-19T10:33:58.040Z,64.29
2023-07-19T10:36:26.694Z,64.15
2023-07-19T10:38:55.386Z,64.02
2023-07-19T10:41:23.817Z,63.85
2023-07-19T10:43:54.695Z,63.64
2023-07-19T10:46:24.321Z,63.55
2023-07-19T10:48:53.422Z,63.33
2023-07-19T10:51:22.763Z,63.47
2023-07-19T10:54:00.747Z,63.62
2023-07-19T10:56:30.469Z,63.76
2023-07-19T10:59:01.171Z,63.60
2023-07-19T11:01:31.473Z,63.29
2023-07-19T11:04:06.389Z,63.05
2023-07-19T11:06:40.053Z,63.13
2023-07-19T11:09:09.972Z,63.28
2023-07-19T11:11:40.025Z,63.51
2023-07-19T11:14:08.882Z,64.05
2023-07-19T11:16:37.495Z,64.28
2023-07-19T11:19:05.814Z,64.72
2023-07-19T11:21:34.336Z,65.04
2023-07-19T11:24:04.117Z,65.39
2023-07-19T11:26:32.582Z,65.74
2023-07-19T11:29:01.173Z,65.61
2023-07-19T11:31:39.887Z,66.04
2023-07-19T11:34:16.125Z,66.60
2023-07-19T11:36:46.803Z,66.60
2023-07-19T11:39:22.170Z,66.44
2023-07-19T11:41:51.058Z,66.44
2023-07-19T11:44:23.856Z,66.45
2023-07-19T11:46:54.477Z,66.48
2023-07-19T11:49:23.001Z,66.76
2023-07-19T11:51:53.991Z,66.51
2023-07-19T11:54:22.408Z,66.21
2023-07-19T11:56:50.761Z,66.24
2023-07-19T11:59:19.608Z,66.41
2023-07-19T12:01:48.595Z,66.57
2023-07-19T12:04:17.396Z,66.76
2023-07-19T12:06:45.741Z,66.53
2023-07-19T12:09:14.578Z,65.86
2023-07-19T12:11:43.037Z,65.92
2023-07-19T12:14:11.411Z,66.14
2023-07-19T12:16:39.984Z,66.20
2023-07-19T12:19:12.026Z,66.52
2023-07-19T12:21:41.673Z,66.37
2023-07-19T12:24:09.955Z,66.70
2023-07-19T12:26:38.608Z,66.91
2023-07-19T12:29:07.410Z,67.29
2023-07-19T12:31:35.938Z,67.40
2023-07-19T12:34:04.442Z,67.51
2023-07-19T12:36:32.728Z,67.43
2023-07-19T12:39:01.048Z,66.91
2023-07-19T12:41:31.109Z,66.94
2023-07-19T12:44:01.048Z,65.84
2023-07-19T12:46:29.557Z,65.65
2023-07-19T12:48:58.421Z,65.46
2023-07-19T12:51:26.900Z,65.02
2023-07-19T12:53:57.009Z,64.87
2023-07-19T12:56:25.661Z,64.41
2023-07-19T12:58:54.689Z,64.39
2023-07-19T13:01:23.392Z,64.01
2023-07-19T13:03:51.996Z,64.34
2023-07-19T13:06:20.559Z,64.01
2023-07-19T13:08:52.124Z,64.22
2023-07-19T13:11:21.951Z,64.07
2023-07-19T13:13:50.992Z,64.08
2023-07-19T13:16:19.740Z,63.95
2023-07-19T13:18:48.265Z,63.74
2023-07-19T13:21:18.967Z,63.81
2023-07-19T13:23:58.353Z,63.78
2023-07-19T13:26:27.100Z,63.51
2023-07-19T13:28:56.102Z,63.37
2023-07-19T13:31:25.468Z,63.22
2023-07-19T13:33:53.885Z,63.20
2023-07-19T13:38:53.468Z,63.11
2023-07-19T13:41:21.691Z,62.85
2023-07-19T13:43:51.105Z,62.65
2023-07-19T13:46:19.783Z,62.79
2023-07-19T13:48:48.690Z,62.88
2023-07-19T13:51:17.185Z,62.95
2023-07-19T13:53:45.507Z,62.60
2023-07-19T13:56:13.871Z,62.49
2023-07-19T13:58:43.732Z,62.56
2023-07-19T14:01:15.475Z,62.35
2023-07-19T14:03:44.128Z,62.55
2023-07-19T14:06:13.221Z,62.70
2023-07-19T14:08:41.613Z,62.67
2023-07-19T14:11:10.070Z,62.15
2023-07-19T14:13:38.504Z,61.99
2023-07-19T14:16:06.975Z,61.60
2023-07-19T14:18:36.050Z,61.58
2023-07-19T14:23:36.594Z,61.95
2023-07-19T14:26:05.984Z,61.72
2023-07-19T14:28:37.329Z,61.45
2023-07-19T14:31:06.149Z,61.51
2023-07-19T14:33:35.440Z,61.46
2023-07-19T14:36:07.175Z,61.43
2023-07-19T14:38:36.093Z,61.34
2023-07-19T14:41:07.617Z,61.01
2023-07-19T14:43:43.428Z,60.85
2023-07-19T14:46:12.172Z,61.00
2023-07-19T14:48:40.654Z,60.99
2023-07-19T14:51:09.093Z,60.80
2023-07-19T14:53:37.382Z,60.63
2023-07-19T14:56:05.762Z,60.68
2023-07-19T14:58:36.312Z,60.63
2023-07-19T15:01:13.055Z,60.57
2023-07-19T15:03:41.894Z,60.64
2023-07-19T15:06:10.885Z,60.81
2023-07-19T15:08:39.290Z,60.66
2023-07-19T15:11:08.929Z,60.76
2023-07-19T15:13:37.387Z,61.11
2023-07-19T15:16:07.179Z,61.09
2023-07-19T15:18:39.708Z,61.03
2023-07-19T15:21:08.550Z,61.23
2023-07-19T15:23:36.950Z,61.24
2023-07-19T15:26:05.344Z,61.44
2023-07-19T15:28:33.738Z,61.75
2023-07-19T15:31:05.103Z,62.01
2023-07-19T15:33:34.976Z,62.18
2023-07-19T15:36:03.410Z,61.89
2023-07-19T15:38:42.885Z,61.13
2023-07-19T15:41:11.883Z,61.16
2023-07-19T15:43:43.381Z,61.36
2023-07-19T15:46:12.396Z,61.31
2023-07-19T15:48:40.776Z,60.97
2023-07-19T15:51:09.075Z,60.20
2023-07-19T15:53:38.310Z,60.31
2023-07-19T15:56:11.444Z,59.99
2023-07-19T15:58:40.205Z,59.85
2023-07-19T16:01:08.927Z,60.13
2023-07-19T16:03:37.642Z,60.21
2023-07-19T16:06:08.639Z,60.64
2023-07-19T16:08:38.065Z,60.49
2023-07-19T16:11:06.553Z,60.46
2023-07-19T16:13:35.020Z,59.97
2023-07-19T16:16:04.483Z,60.10
2023-07-19T16:18:32.691Z,59.59
2023-07-19T16:21:01.079Z,59.67
2023-07-19T16:23:29.525Z,59.62
2023-07-19T16:25:57.924Z,59.74
2023-07-19T16:28:26.297Z,59.90
2023-07-19T16:30:54.939Z,59.81
2023-07-19T16:33:23.408Z,59.89
2023-07-19T16:35:52.071Z,59.66
2023-07-19T16:38:20.499Z,59.80
2023-07-19T16:40:49.060Z,60.06
2023-07-19T16:43:18.097Z,59.68
2023-07-19T16:45:46.465Z,59.62
2023-07-19T16:48:14.888Z,59.75
2023-07-19T16:50:43.344Z,59.41
2023-07-19T16:53:15.766Z,59.52
2023-07-19T16:55:45.866Z,59.71
2023-07-19T16:58:14.185Z,59.55
2023-07-19T17:00:43.134Z,59.59
2023-07-19T17:03:11.685Z,59.44
2023-07-19T17:05:40.123Z,59.54
2023-07-19T17:08:08.385Z,59.62
2023-07-19T17:10:37.264Z,59.42
2023-07-19T17:13:08.858Z,59.48
2023-07-19T17:15:38.421Z,59.51
2023-07-19T17:18:08.641Z,59.79
2023-07-19T17:20:37.710Z,59.81
2023-07-19T17:23:07.178Z,59.63
2023-07-19T17:25:35.846Z,59.66
2023-07-19T17:28:04.373Z,59.68
2023-07-19T17:30:33.046Z,59.76
2023-07-19T17:33:01.666Z,59.84
2023-07-19T17:35:30.301Z,59.87
2023-07-19T17:37:58.702Z,60.18
2023-07-19T17:40:27.067Z,60.27
2023-07-19T17:42:55.637Z,60.77
2023-07-19T17:45:24.132Z,61.10
2023-07-19T17:47:52.510Z,61.33
2023-07-19T17:50:20.961Z,61.08
2023-07-19T17:52:49.365Z,60.90
2023-07-19T17:55:17.848Z,61.21
2023-07-19T17:57:46.369Z,61.35
2023-07-19T18:00:15.059Z,61.66
2023-07-19T18:02:43.820Z,61.67
2023-07-19T18:05:12.284Z,61.63
2023-07-19T18:07:40.814Z,61.78
2023-07-19T18:10:09.708Z,62.01
2023-07-19T18:12:40.920Z,62.20
2023-07-19T18:15:10.510Z,62.34
2023-07-19T18:17:38.893Z,62.52
2023-07-19T18:20:08.398Z,62.74
2023-07-19T18:22:37.436Z,62.83
2023-07-19T18:25:06.184Z,62.97
2023-07-19T18:27:34.597Z,63.14
2023-07-19T18:30:03.086Z,63.31
2023-07-19T18:32:31.668Z,63.40
2023-07-19T18:35:00.176Z,63.59
2023-07-19T18:37:28.692Z,63.56
2023-07-19T18:39:58.952Z,63.54
2023-07-19T18:42:27.330Z,63.79
2023-07-19T18:45:10.711Z,63.94
2023-07-19T18:48:24.936Z,64.03
2023-07-19T18:50:58.784Z,64.43
2023-07-19T18:57:31.272Z,63.95
2023-07-19T19:01:00.042Z,63.62
2023-07-19T19:03:30.499Z,63.74
2023-07-19T19:06:34.528Z,63.88
2023-07-19T19:09:15.636Z,64.30
2023-07-19T19:13:04.649Z,64.70
2023-07-19T19:15:56.618Z,64.15
2023-07-19T19:18:59.138Z,64.02
2023-07-19T19:29:29.053Z,64.00
2023-07-19T19:31:57.833Z,64.21
2023-07-19T19:34:44.951Z,64.96
2023-07-19T19:37:15.200Z,65.11
2023-07-19T19:40:21.392Z,65.61
2023-07-19T19:42:49.995Z,65.58
2023-07-19T19:45:18.523Z,65.37
2023-07-19T19:47:47.133Z,65.72
2023-07-19T19:50:15.819Z,65.95
2023-07-19T19:52:52.096Z,66.33
2023-07-19T19:55:48.978Z,66.63
2023-07-19T20:04:42.887Z,67.49
2023-07-19T20:07:12.122Z,67.24
2023-07-19T20:09:55.447Z,67.00
2023-07-19T20:12:30.171Z,67.39
2023-07-19T20:14:58.635Z,67.59
2023-07-19T20:17:41.304Z,67.78
2023-07-19T20:20:26.667Z,67.79
2023-07-19T20:23:09.857Z,67.89
2023-07-19T20:26:11.746Z,67.84
2023-07-19T20:28:47.987Z,68.01
2023-07-19T20:34:33.663Z,68.21
2023-07-19T20:41:40.427Z,68.48
2023-07-19T20:44:08.724Z,68.13
2023-07-19T20:49:14.281Z,68.24
2023-07-19T20:51:44.975Z,68.56
2023-07-19T20:54:15.351Z,68.46
2023-07-19T20:56:44.681Z,68.06
2023-07-19T20:59:14.987Z,67.53
2023-07-19T21:01:45.262Z,67.09
2023-07-19T21:04:17.977Z,66.83
2023-07-19T21:06:46.759Z,67.21
2023-07-19T21:09:16.562Z,67.64
2023-07-19T21:11:45.130Z,67.95
2023-07-19T21:14:14.171Z,68.05
2023-07-19T21:16:43.153Z,68.04
2023-07-19T21:19:11.529Z,67.87
2023-07-19T21:21:40.077Z,67.38
2023-07-19T21:24:08.628Z,67.50
2023-07-19T21:26:36.986Z,67.85
2023-07-19T21:29:06.126Z,68.28
2023-07-19T21:31:36.924Z,68.67
2023-07-19T21:34:05.874Z,68.45
2023-07-19T21:36:34.248Z,68.30
2023-07-19T21:39:02.576Z,68.49
2023-07-19T21:41:31.024Z,68.41
2023-07-19T21:44:00.935Z,68.79
2023-07-19T21:46:29.821Z,68.83
2023-07-19T21:48:58.181Z,69.08
2023-07-19T21:51:26.543Z,69.06
2023-07-19T21:53:55.033Z,69.17
2023-07-19T21:56:24.154Z,69.14
2023-07-19T21:59:03.899Z,69.08
2023-07-19T22:01:32.950Z,68.91
2023-07-19T22:04:01.664Z,68.83
2023-07-19T22:06:30.463Z,68.71
2023-07-19T22:08:58.904Z,68.96
2023-07-19T22:22:59.879Z,67.84
2023-07-19T22:25:28.225Z,67.78
2023-07-19T22:27:56.552Z,67.82
2023-07-19T22:30:24.906Z,67.94
2023-07-19T22:32:53.216Z,68.04
2023-07-19T22:35:21.992Z,68.25
2023-07-19T22:37:50.409Z,68.28
2023-07-19T22:40:21.959Z,68.41
2023-07-19T22:42:50.295Z,68.42
2023-07-19T22:45:18.898Z,68.29
2023-07-19T22:47:48.049Z,68.01
2023-07-19T22:50:16.833Z,67.50
2023-07-19T22:52:50.555Z,67.46
2023-07-19T22:55:23.823Z,67.52
2023-07-19T22:57:54.250Z,67.34
2023-07-19T23:00:26.489Z,67.88
2023-07-19T23:02:54.911Z,68.24
2023-07-19T23:05:23.562Z,68.14
2023-07-19T23:07:52.376Z,68.14
2023-07-19T23:10:22.066Z,67.98
2023-07-19T23:12:52.114Z,68.22
2023-07-19T23:15:23.497Z,68.38
2023-07-19T23:17:54.082Z,68.30
2023-07-19T23:20:22.670Z,68.29
2023-07-19T23:22:51.102Z,68.33
2023-07-19T23:25:19.736Z,68.61
2023-07-19T23:27:48.155Z,68.73
2023-07-19T23:30:16.653Z,68.90
2023-07-19T23:32:45.070Z,69.04
2023-07-19T23:35:13.464Z,69.00
2023-07-19T23:37:41.805Z,69.04
2023-07-19T23:40:10.648Z,69.14
2023-07-19T23:42:38.962Z,68.96
2023-07-19T23:45:08.426Z,68.92
2023-07-19T23:47:37.241Z,68.98
2023-07-19T23:50:06.466Z,69.24
2023-07-19T23:52:35.545Z,69.34
2023-07-19T23:55:05.123Z,69.43
2023-07-19T23:57:34.075Z,69.47
